ADDS METAR Data INFO
IDs: Format: Raw Decoded Include TAF

Data at: 0358 UTC 19 Jul 2018

KMGY 190353Z AUTO 06005KT 10SM CLR 21/13 A3004 RMK AO2 SLP165 T02110128
KMGY 190253Z AUTO 08005KT 10SM CLR 21/13 A3004 RMK AO2 SLP166 T02110128 53010
KMGY 190153Z AUTO 07004KT 10SM CLR 22/13 A3003 RMK AO2 SLP160 T02220128
KMGY 190053Z AUTO 08003KT 10SM FEW065 25/13 A3002 RMK AO2 SLP158 T02500128
KMGY 182353Z AUTO 10005KT 10SM FEW065 27/13 A3001 RMK AO2 SLP155 T02670128 10294 20261 56007
KMGY 182253Z AUTO 09005KT 10SM FEW065 27/13 A3001 RMK AO2 SLP156 T02720128
KMGY 182153Z AUTO 06008KT 10SM SCT065 29/13 A3002 RMK AO2 SLP159 T02890133
KMGY 182053Z AUTO 10008KT 10SM CLR 29/13 A3003 RMK AO2 SLP162 T02890128 58010
KMGY 181953Z AUTO 00000KT 10SM BKN065 27/12 A3004 RMK AO2 SLP166 T02720122
KMGY 181853Z AUTO 15005KT 10SM FEW065 29/13 A3006 RMK AO2 SLP170 T02890128
KMGY 181753Z AUTO 08005KT 10SM SCT055 27/13 A3006 RMK AO2 SLP173 T02670133 10283 20200 58003
KMGY 181653Z AUTO 09006KT 10SM BKN050 BKN060 27/14 A3008 RMK AO2 SLP176 T02720139
KMGY 181553Z AUTO 11007KT 10SM FEW047 27/14 A3008 RMK AO2 SLP176 T02670144
KMGY 181453Z AUTO 11007KT 050V130 10SM CLR 26/16 A3007 RMK AO2 SLP175 T02610156 50001
KMGY 181353Z AUTO 08005KT 10SM CLR 24/15 A3008 RMK AO2 SLP176 T02440150
KMGY 181253Z AUTO 06006KT 10SM CLR 22/15 A3008 RMK AO2 SLP176 T02220150
KMGY 181153Z AUTO 03004KT 10SM CLR 20/14 A3007 RMK AO2 SLP175 T02000144 10217 20172 53009
KMGY 181053Z AUTO 03004KT 10SM CLR 17/13 A3006 RMK AO2 SLP171 T01720128
KMGY 180953Z AUTO 00000KT 10SM CLR 18/13 A3005 RMK AO2 SLP167 T01780128
KMGY 180853Z AUTO 00000KT 10SM CLR 19/13 A3004 RMK AO2 SLP164 T01890128 50000
KMGY 180753Z AUTO 01003KT 10SM CLR 19/13 A3004 RMK AO2 SLP165 T01940128
KMGY 180653Z AUTO 36006KT 10SM CLR 21/13 A3004 RMK AO2 SLP165 T02060128
KMGY 180553Z AUTO 35005KT 10SM CLR 21/13 A3004 RMK AO2 SLP164 T02110133 10283 20211 51002
KMGY 180453Z AUTO 34007KT 10SM CLR 23/13 A3004 RMK AO2 SLP164 T02280133 403110222
KMGY 180353Z AUTO 35006KT 10SM CLR 23/14 A3004 RMK AO2 SLP164 T02330144
KMGY 180253Z AUTO 31003KT 10SM CLR 25/14 A3004 RMK AO2 SLP162 T02500139 53016
KMGY 180153Z AUTO 34005KT 10SM CLR 26/14 A3002 RMK AO2 SLP156 T02560139
KMGY 180053Z AUTO 34012KT 10SM CLR 27/14 A3000 RMK AO2 SLP150 T02720144
KMGY 172353Z AUTO 32007KT 10SM FEW060 BKN075 28/14 A2999 RMK AO2 SLP146 T02830139 10311 20283 55000
KMGY 172253Z AUTO 33010G17KT 10SM CLR 29/13 A2998 RMK AO2 SLP143 T02940128
KMGY 172153Z AUTO 32010KT 10SM CLR 31/12 A2998 RMK AO2 SLP142 T03060117
KMGY 172053Z AUTO 31009G18KT 10SM FEW065 31/14 A2999 RMK AO2 SLP145 T03060139 56007
KMGY 171953Z AUTO 33008G19KT 10SM CLR 31/14 A3000 RMK AO2 SLP147 T03110144
KMGY 171853Z AUTO 32012G19KT 10SM CLR 31/13 A3000 RMK AO2 SLP149 T03060133
KMGY 171753Z AUTO 35009KT 10SM CLR 29/12 A3001 RMK AO2 SLP153 T02940122 10300 20233 58002
KMGY 171653Z AUTO 02011KT 10SM CLR 29/13 A3002 RMK AO2 SLP157 T02940128